Time;durP1;ratioP1;P1;durP2;ratioP2;P2;SDS_P1;SDS_P2;PMS_P1;PMS_P2;Temp;Humidity;BMP_temperature;BMP_pressure;BME280_temperature;BME280_humidity;BME280_pressure;Samples;Min_cycle;Max_cycle;Signal;HPM_P1;HPM_P2
2020/12/08 00:01:37;;;;;;;16.92;6.88;;;;;;;-7.81;74.60;100701.78;3493658;28;20076;-54
2020/12/08 00:03:19;;;;;;;17.05;7.35;;;;;;;-7.82;74.10;100707.56;3495030;28;20048;-52
2020/12/08 00:05:00;;;;;;;22.13;8.27;;;;;;;-7.83;74.14;100709.19;3494383;28;20111;-52
2020/12/08 00:06:42;;;;;;;19.60;7.20;;;;;;;-7.83;74.05;100713.31;3493452;28;20144;-51
2020/12/08 00:08:23;;;;;;;19.27;7.78;;;;;;;-7.84;74.15;100711.53;3494847;28;20570;-51
2020/12/08 00:10:05;;;;;;;17.10;7.47;;;;;;;-7.85;74.15;100697.19;3493849;28;20079;-52
2020/12/08 00:11:47;;;;;;;24.38;7.93;;;;;;;-7.86;74.49;100696.25;3490824;28;20397;-55
2020/12/08 00:13:28;;;;;;;19.00;6.82;;;;;;;-7.84;74.47;100696.41;3495058;28;20044;-55
2020/12/08 00:15:10;;;;;;;18.83;6.55;;;;;;;-7.83;74.60;100701.63;3491936;28;20087;-53
2020/12/08 00:16:52;;;;;;;18.13;6.47;;;;;;;-7.82;74.06;100700.91;3491314;28;20099;-54
2020/12/08 00:18:33;;;;;;;23.02;7.95;;;;;;;-7.81;73.98;100702.66;3493819;28;20587;-54
2020/12/08 00:20:16;;;;;;;21.70;8.52;;;;;;;-7.81;74.26;100705.19;3491433;28;20090;-55
2020/12/08 00:21:58;;;;;;;24.17;7.32;;;;;;;-7.81;74.09;100710.22;3492044;28;20055;-53
2020/12/08 00:23:39;;;;;;;19.65;7.40;;;;;;;-7.80;74.07;100701.06;3494491;28;20048;-52
2020/12/08 00:25:21;;;;;;;17.13;6.95;;;;;;;-7.80;74.03;100696.03;3491705;28;20084;-52
2020/12/08 00:27:02;;;;;;;18.02;7.88;;;;;;;-7.80;73.78;100696.03;3492326;28;20122;-40
2020/12/08 00:28:43;;;;;;;20.30;7.43;;;;;;;-7.80;73.72;100688.47;3494613;28;20052;-40
2020/12/08 00:30:25;;;;;;;18.35;7.53;;;;;;;-7.80;73.75;100696.03;3493417;28;20102;-40
2020/12/08 00:32:08;;;;;;;20.05;8.07;;;;;;;-7.83;73.46;100699.09;3489493;28;20515;-41
2020/12/08 00:33:49;;;;;;;20.25;8.05;;;;;;;-7.87;73.38;100691.97;3492333;28;20048;-53
2020/12/08 00:35:31;;;;;;;19.23;7.80;;;;;;;-7.89;73.80;100700.09;3492087;28;20401;-52
2020/12/08 00:37:13;;;;;;;21.20;8.73;;;;;;;-7.92;73.86;100698.16;3493203;28;20049;-54
2020/12/08 00:38:55;;;;;;;19.10;7.68;;;;;;;-7.94;73.93;100697.13;3491399;28;20532;-53
2020/12/08 00:40:36;;;;;;;18.27;7.53;;;;;;;-7.97;74.10;100705.22;3491914;28;20048;-54
2020/12/08 00:42:18;;;;;;;22.50;8.55;;;;;;;-7.96;74.41;100716.22;3494431;28;20044;-53
2020/12/08 00:43:59;;;;;;;17.65;7.82;;;;;;;-7.97;74.29;100694.28;3489639;28;20102;-51
2020/12/08 00:45:41;;;;;;;27.67;7.50;;;;;;;-7.97;74.16;100687.59;3492219;28;20079;-51
2020/12/08 00:47:22;;;;;;;23.98;8.35;;;;;;;-7.98;74.25;100677.41;3494227;28;20071;-54
2020/12/08 00:49:05;;;;;;;15.07;6.82;;;;;;;-7.98;74.51;100679.94;3492113;28;20075;-40
2020/12/08 00:50:46;;;;;;;22.95;9.00;;;;;;;-7.99;74.35;100693.22;3491574;28;20072;-40
2020/12/08 00:52:27;;;;;;;17.25;7.63;;;;;;;-8.00;74.51;100681.38;3493066;28;20040;-40
2020/12/08 00:54:20;;;;;;;19.42;7.18;;;;;;;-8.01;74.67;100693.06;3492850;28;20261;-40
2020/12/08 00:56:07;;;;;;;20.90;8.13;;;;;;;-8.02;74.66;100676.16;3494062;28;20071;-39
2020/12/08 00:57:48;;;;;;;19.95;7.88;;;;;;;-8.01;74.89;100677.09;3492725;28;20087;-40
2020/12/08 00:59:30;;;;;;;18.35;7.03;;;;;;;-8.01;74.68;100683.00;3493335;28;20041;-40
2020/12/08 01:01:12;;;;;;;18.73;8.60;;;;;;;-8.00;74.78;100674.72;3494692;28;20049;-40
2020/12/08 01:02:53;;;;;;;24.48;8.80;;;;;;;-8.00;74.61;100663.75;3494168;28;20090;-40
2020/12/08 01:04:35;;;;;;;20.27;7.13;;;;;;;-8.00;74.61;100671.28;3495301;28;20056;-40
2020/12/08 01:06:16;;;;;;;19.30;8.13;;;;;;;-8.01;74.42;100672.06;3497209;28;20441;-40
2020/12/08 01:07:58;;;;;;;17.02;6.95;;;;;;;-8.02;74.52;100678.69;3493706;28;20055;-40
2020/12/08 01:09:39;;;;;;;21.50;8.77;;;;;;;-8.02;74.78;100667.72;3494391;28;20087;-54
2020/12/08 01:11:21;;;;;;;18.45;7.95;;;;;;;-8.03;74.80;100668.50;3496298;28;20049;-54
2020/12/08 01:13:03;;;;;;;18.17;8.00;;;;;;;-8.06;74.62;100670.69;3496040;28;20082;-54
2020/12/08 01:14:44;;;;;;;15.00;6.38;;;;;;;-8.06;74.75;100680.75;3494414;28;20048;-54
2020/12/08 01:16:26;;;;;;;15.63;7.30;;;;;;;-8.04;74.79;100676.75;3497134;28;20059;-54
2020/12/08 01:18:08;;;;;;;19.90;8.00;;;;;;;-8.05;74.82;100682.50;3492541;28;20052;-55
2020/12/08 01:19:49;;;;;;;16.35;6.82;;;;;;;-8.06;75.17;100683.28;3495544;28;20490;-51
2020/12/08 01:21:31;;;;;;;23.33;8.70;;;;;;;-8.06;75.11;100680.75;3495478;28;20072;-52
2020/12/08 01:23:13;;;;;;;19.83;7.55;;;;;;;-8.05;75.06;100685.94;3494910;28;20040;-53
2020/12/08 01:24:54;;;;;;;17.77;7.07;;;;;;;-8.03;75.32;100688.63;3497198;28;20048;-52
2020/12/08 01:26:36;;;;;;;23.00;8.38;;;;;;;-8.04;75.14;100670.09;3495189;28;20087;-53
2020/12/08 01:28:17;;;;;;;17.42;7.15;;;;;;;-8.04;74.95;100672.59;3494221;28;20044;-52
2020/12/08 01:29:59;;;;;;;25.23;8.02;;;;;;;-8.06;74.84;100668.16;3497103;28;20082;-53
2020/12/08 01:31:42;;;;;;;18.50;7.65;;;;;;;-8.09;74.90;100671.25;3495218;28;20048;-54
2020/12/08 01:33:23;;;;;;;20.23;6.97;;;;;;;-8.10;75.24;100677.03;3494237;28;20056;-54
2020/12/08 01:35:05;;;;;;;24.85;8.20;;;;;;;-8.11;75.19;100675.22;3496798;28;20068;-40
2020/12/08 01:36:46;;;;;;;18.20;7.32;;;;;;;-8.11;74.99;100661.75;3492518;28;20053;-40
2020/12/08 01:38:27;;;;;;;23.17;8.35;;;;;;;-8.11;74.99;100671.84;3496145;28;20048;-40
2020/12/08 01:40:09;;;;;;;16.33;7.63;;;;;;;-8.13;75.14;100674.19;3496371;28;20049;-40
2020/12/08 01:41:54;;;;;;;22.58;7.65;;;;;;;-8.12;75.43;100668.44;3494678;28;20506;-40
2020/12/08 01:43:45;;;;;;;17.42;7.43;;;;;;;-8.12;75.54;100686.06;3495678;28;20079;-40
2020/12/08 01:45:27;;;;;;;22.02;8.30;;;;;;;-8.12;75.45;100670.03;3495214;28;20052;-40
2020/12/08 01:47:09;;;;;;;19.38;8.20;;;;;;;-8.10;75.44;100679.53;3495235;28;20040;-40
2020/12/08 01:48:52;;;;;;;26.40;8.57;;;;;;;-8.10;75.59;100684.59;3495583;28;20045;-40
2020/12/08 01:50:33;;;;;;;24.48;7.93;;;;;;;-8.10;75.39;100677.03;3495728;28;20560;-41
2020/12/08 01:52:16;;;;;;;21.40;8.35;;;;;;;-8.08;75.46;100687.25;3494751;28;20052;-39
2020/12/08 01:53:57;;;;;;;24.38;8.27;;;;;;;-8.09;75.46;100691.38;3496632;28;20056;-40
2020/12/08 01:55:39;;;;;;;22.13;9.55;;;;;;;-8.09;75.24;100688.84;3494664;28;20475;-40
2020/12/08 01:57:21;;;;;;;21.42;8.38;;;;;;;-8.09;75.55;100693.00;3494296;28;20516;-40
2020/12/08 01:59:02;;;;;;;20.75;7.32;;;;;;;-8.10;75.48;100689.63;3496735;28;20668;-40
2020/12/08 02:00:44;;;;;;;23.85;7.72;;;;;;;-8.12;75.22;100698.63;3494837;28;20515;-39
2020/12/08 02:02:26;;;;;;;19.23;7.90;;;;;;;-8.11;75.49;100681.91;3495296;28;20076;-39
2020/12/08 02:04:07;;;;;;;32.90;8.68;;;;;;;-8.12;75.58;100688.56;3492725;28;20106;-40
2020/12/08 02:05:48;;;;;;;24.70;8.27;;;;;;;-8.12;75.25;100695.22;3494513;28;20059;-39
2020/12/08 02:07:30;;;;;;;25.42;8.30;;;;;;;-8.14;75.30;100695.03;3494877;28;20064;-39
2020/12/08 02:09:13;;;;;;;16.60;7.72;;;;;;;-8.15;75.62;100694.16;3496469;28;20473;-39
2020/12/08 02:10:54;;;;;;;24.90;8.27;;;;;;;-8.16;75.76;100696.50;3494634;28;20150;-39
2020/12/08 02:12:36;;;;;;;19.67;8.52;;;;;;;-8.17;75.75;100690.59;3494271;28;20619;-39
2020/12/08 02:14:17;;;;;;;18.90;7.85;;;;;;;-8.17;75.82;100694.75;3495771;28;20055;-39
2020/12/08 02:15:59;;;;;;;23.52;9.15;;;;;;;-8.17;76.03;100697.25;3493206;28;20455;-41
2020/12/08 02:17:41;;;;;;;20.27;7.55;;;;;;;-8.17;76.33;100695.63;3495839;28;20053;-40
2020/12/08 02:19:23;;;;;;;21.75;7.90;;;;;;;-8.15;76.12;100695.78;3494431;28;20045;-40
2020/12/08 02:21:05;;;;;;;20.45;8.15;;;;;;;-8.13;76.15;100704.38;3494474;28;20040;-41
2020/12/08 02:22:46;;;;;;;22.30;8.05;;;;;;;-8.13;75.99;100695.97;3493668;28;20063;-39
2020/12/08 02:24:28;;;;;;;22.42;8.18;;;;;;;-8.12;76.10;100691.09;3494286;28;20509;-39
2020/12/08 02:26:09;;;;;;;22.20;8.40;;;;;;;-8.12;76.03;100682.63;3492212;28;20061;-39
2020/12/08 02:27:51;;;;;;;24.70;8.02;;;;;;;-8.11;76.29;100690.34;3496454;28;20049;-40
2020/12/08 02:29:33;;;;;;;24.92;8.80;;;;;;;-8.10;76.20;100691.25;3493256;28;20129;-40
2020/12/08 02:31:14;;;;;;;19.83;7.85;;;;;;;-8.09;76.34;100691.38;3494118;28;20079;-40
2020/12/08 02:32:56;;;;;;;24.58;8.93;;;;;;;-8.09;76.19;100690.50;3496380;28;20048;-39
2020/12/08 02:34:37;;;;;;;23.92;8.10;;;;;;;-8.10;76.06;100683.69;3494561;28;20041;-40
2020/12/08 02:36:20;;;;;;;20.65;8.10;;;;;;;-8.10;76.19;100684.59;3494626;28;20044;-39
2020/12/08 02:38:01;;;;;;;20.25;8.05;;;;;;;-8.10;76.23;100689.63;3495288;28;20044;-41
2020/12/08 02:39:42;;;;;;;19.65;9.07;;;;;;;-8.11;76.58;100687.81;3493456;28;20080;-39
2020/12/08 02:41:24;;;;;;;19.38;8.27;;;;;;;-8.11;76.70;100686.94;3496299;28;20051;-39
2020/12/08 02:43:06;;;;;;;21.75;7.70;;;;;;;-8.11;76.40;100686.94;3493081;28;20410;-40
2020/12/08 02:44:47;;;;;;;25.80;8.02;;;;;;;-8.11;76.33;100686.94;3491302;28;20413;-40
2020/12/08 02:46:29;;;;;;;19.90;8.43;;;;;;;-8.13;76.51;100689.28;3496399;28;20048;-40
2020/12/08 02:48:10;;;;;;;21.83;8.80;;;;;;;-8.17;76.67;100680.53;3493082;28;20076;-40
2020/12/08 02:49:54;;;;;;;16.50;7.32;;;;;;;-8.15;76.92;100683.22;3494646;28;20044;-40
2020/12/08 02:51:37;;;;;;;19.42;8.00;;;;;;;-8.14;76.97;100682.47;3494961;28;20406;-40
2020/12/08 02:53:19;;;;;;;23.40;9.52;;;;;;;-8.13;76.97;100683.38;3494907;28;20044;-40
2020/12/08 02:55:00;;;;;;;26.17;8.23;;;;;;;-8.15;77.03;100679.06;3495327;28;20083;-51
2020/12/08 02:56:42;;;;;;;20.65;7.90;;;;;;;-8.16;77.12;100682.31;3495268;28;20048;-40
2020/12/08 02:58:23;;;;;;;26.35;8.68;;;;;;;-8.17;77.03;100675.50;3492502;28;20075;-40
2020/12/08 03:00:05;;;;;;;21.88;9.65;;;;;;;-8.18;77.27;100680.38;3494005;28;20137;-40
2020/12/08 03:01:47;;;;;;;23.05;8.30;;;;;;;-8.18;77.33;100681.25;3493608;28;20090;-40
2020/12/08 03:03:28;;;;;;;19.42;8.43;;;;;;;-8.18;77.46;100673.69;3492937;28;20049;-40
2020/12/08 03:05:10;;;;;;;22.70;9.80;;;;;;;-8.17;77.62;100670.47;3496222;28;20052;-41
2020/12/08 03:06:52;;;;;;;24.20;8.13;;;;;;;-8.16;77.54;100681.41;3494035;28;20052;-40
2020/12/08 03:08:33;;;;;;;22.88;8.48;;;;;;;-8.15;77.75;100673.13;3493757;28;20083;-40
2020/12/08 03:10:15;;;;;;;33.53;10.02;;;;;;;-8.15;77.78;100680.69;3496051;28;20302;-40
2020/12/08 03:11:56;;;;;;;22.70;8.20;;;;;;;-8.15;77.65;100674.03;3492749;28;20051;-41
2020/12/08 03:13:38;;;;;;;24.60;8.43;;;;;;;-8.14;77.74;100674.91;3493619;28;20668;-40
2020/12/08 03:15:19;;;;;;;18.90;8.00;;;;;;;-8.13;77.74;100678.34;3495774;28;20558;-40
2020/12/08 03:17:01;;;;;;;23.35;8.10;;;;;;;-8.12;77.68;100670.94;3494430;28;20080;-40
2020/12/08 03:18:42;;;;;;;20.73;8.38;;;;;;;-8.10;77.59;100676.16;3492445;28;20056;-40
2020/12/08 03:20:25;;;;;;;22.85;8.23;;;;;;;-8.09;77.45;100676.28;3495532;28;20040;-40
2020/12/08 03:22:07;;;;;;;24.25;8.40;;;;;;;-8.09;77.37;100678.78;3493915;28;20077;-54
2020/12/08 03:23:48;;;;;;;24.73;8.85;;;;;;;-8.10;77.40;100677.03;3492855;28;20083;-53
2020/12/08 03:25:30;;;;;;;19.83;8.80;;;;;;;-8.09;77.46;100677.91;3493460;28;20488;-53
2020/12/08 03:27:11;;;;;;;18.67;8.55;;;;;;;-8.08;77.76;100669.63;3494784;28;20041;-53
2020/12/08 03:28:53;;;;;;;25.10;8.85;;;;;;;-8.09;77.89;100663.69;3495768;28;20052;-55
2020/12/08 03:30:35;;;;;;;25.90;9.13;;;;;;;-8.07;77.83;100666.38;3492562;28;20047;-52
2020/12/08 03:32:16;;;;;;;23.83;9.40;;;;;;;-8.08;77.91;100662.97;3493573;28;20559;-51
2020/12/08 03:33:57;;;;;;;24.52;8.93;;;;;;;-8.07;77.97;100663.84;3495196;28;20049;-52
2020/12/08 03:35:40;;;;;;;25.63;9.70;;;;;;;-8.05;78.03;100660.78;3494098;28;20057;-52
2020/12/08 03:37:22;;;;;;;25.55;9.57;;;;;;;-8.04;78.05;100659.13;3492945;28;20080;-52
2020/12/08 03:39:04;;;;;;;29.15;9.68;;;;;;;-8.04;77.84;100654.09;3494481;28;20086;-52
2020/12/08 03:40:45;;;;;;;28.40;9.93;;;;;;;-8.03;77.97;100653.38;3492018;28;20455;-55
2020/12/08 03:42:27;;;;;;;25.08;8.88;;;;;;;-8.03;78.05;100655.91;3493233;28;20075;-52
2020/12/08 03:44:09;;;;;;;27.90;10.30;;;;;;;-8.03;78.26;100658.41;3494593;28;20040;-52
2020/12/08 03:45:50;;;;;;;28.35;10.60;;;;;;;-8.03;78.44;100656.78;3491369;28;20402;-54
2020/12/08 03:47:31;;;;;;;29.55;9.75;;;;;;;-8.03;78.35;100661.81;3494774;28;20048;-54
2020/12/08 03:49:13;;;;;;;25.05;9.13;;;;;;;-8.02;78.46;100661.06;3493212;28;20501;-53
2020/12/08 03:50:55;;;;;;;27.52;10.07;;;;;;;-8.02;78.64;100658.53;3492770;28;20055;-53
2020/12/08 03:52:37;;;;;;;25.10;9.60;;;;;;;-8.01;78.63;100659.47;3495641;28;20048;-52
2020/12/08 03:54:19;;;;;;;18.67;7.93;;;;;;;-8.01;78.82;100660.34;3492799;28;20044;-55
2020/12/08 03:56:01;;;;;;;23.98;9.82;;;;;;;-8.00;78.94;100656.19;3492001;28;20505;-55
2020/12/08 03:57:42;;;;;;;25.25;9.55;;;;;;;-8.01;78.96;100660.34;3494273;28;20068;-54
2020/12/08 03:59:24;;;;;;;23.58;9.73;;;;;;;-8.02;78.97;100651.00;3493424;28;20072;-55
2020/12/08 04:01:06;;;;;;;25.02;9.35;;;;;;;-8.02;79.15;100656.03;3493797;28;20050;-54
2020/12/08 04:02:47;;;;;;;29.25;10.30;;;;;;;-8.01;79.28;100651.91;3495448;28;20052;-53
2020/12/08 04:04:28;;;;;;;25.85;10.07;;;;;;;-8.02;79.35;100656.03;3493323;28;20421;-55
2020/12/08 04:06:12;;;;;;;32.58;9.55;;;;;;;-8.02;79.34;100650.13;3493285;28;20059;-54
2020/12/08 04:07:54;;;;;;;25.75;9.15;;;;;;;-8.02;79.42;100643.44;3495217;28;20049;-54
2020/12/08 04:09:36;;;;;;;23.13;8.50;;;;;;;-8.01;79.35;100645.25;3494069;28;20131;-54
2020/12/08 04:11:18;;;;;;;27.27;10.38;;;;;;;-8.01;79.34;100644.34;3490610;28;20394;-54
2020/12/08 04:12:59;;;;;;;28.00;10.00;;;;;;;-8.01;79.44;100645.25;3494806;28;20056;-53
2020/12/08 04:14:40;;;;;;;21.40;8.23;;;;;;;-8.02;79.55;100638.41;3491366;28;20096;-55
2020/12/08 04:16:22;;;;;;;37.17;10.55;;;;;;;-8.01;79.64;100647.75;3495404;28;20048;-54
2020/12/08 04:18:03;;;;;;;28.10;10.23;;;;;;;-8.01;79.67;100652.78;3492852;28;20071;-54
2020/12/08 04:19:45;;;;;;;30.50;10.10;;;;;;;-8.01;79.64;100645.25;3491160;28;20102;-54
2020/12/08 04:21:29;;;;;;;26.20;10.27;;;;;;;-8.01;79.67;100637.69;3495069;28;20421;-53
2020/12/08 04:23:12;;;;;;;23.13;8.90;;;;;;;-8.01;79.61;100637.69;3493145;28;20661;-53
2020/12/08 04:24:53;;;;;;;29.67;10.48;;;;;;;-8.03;79.67;100648.34;3492080;28;20048;-54
2020/12/08 04:26:35;;;;;;;23.58;9.25;;;;;;;-8.03;79.78;100639.16;3495305;28;20040;-51
2020/12/08 04:28:16;;;;;;;27.58;10.50;;;;;;;-8.02;79.77;100635.00;3492459;28;20051;-51
2020/12/08 04:29:58;;;;;;;23.58;9.13;;;;;;;-8.03;79.75;100639.16;3490160;28;20137;-52
2020/12/08 04:31:39;;;;;;;22.35;8.70;;;;;;;-8.03;79.79;100638.28;3494051;28;20415;-52
2020/12/08 04:33:21;;;;;;;29.10;10.70;;;;;;;-8.03;79.81;100638.28;3492566;28;20052;-54
2020/12/08 04:35:02;;;;;;;27.65;9.85;;;;;;;-8.02;79.95;100635.00;3494519;28;20052;-55
2020/12/08 04:36:44;;;;;;;29.45;9.43;;;;;;;-8.02;79.91;100632.50;3493792;28;20135;-55
2020/12/08 04:38:26;;;;;;;30.25;10.65;;;;;;;-8.00;80.07;100636.97;3492991;28;20045;-53
2020/12/08 04:40:08;;;;;;;28.02;10.13;;;;;;;-8.00;80.08;100642.00;3497579;28;20075;-52
2020/12/08 04:41:52;;;;;;;28.77;10.43;;;;;;;-7.99;80.02;100641.25;3495428;28;20053;-55
2020/12/08 04:43:34;;;;;;;29.00;9.90;;;;;;;-7.98;80.12;100649.72;3494649;28;20087;-54
2020/12/08 04:45:17;;;;;;;27.63;10.57;;;;;;;-7.99;79.93;100647.91;3496219;28;20135;-52
2020/12/08 04:46:59;;;;;;;25.25;10.93;;;;;;;-8.01;79.82;100644.34;3495281;28;20052;-55
2020/12/08 04:48:40;;;;;;;31.95;10.70;;;;;;;-8.03;80.07;100651.75;3495544;28;20049;-40
2020/12/08 04:50:21;;;;;;;29.08;10.85;;;;;;;-8.05;80.04;100645.66;3497581;28;20044;-40
2020/12/08 04:52:03;;;;;;;27.48;9.40;;;;;;;-8.07;80.09;100639.59;3492789;28;20077;-40
2020/12/08 04:53:46;;;;;;;26.02;10.32;;;;;;;-8.06;80.34;100645.50;3494442;28;20362;-40
2020/12/08 04:55:28;;;;;;;26.30;10.85;;;;;;;-8.07;80.38;100647.16;3496133;28;20121;-41
2020/12/08 04:57:09;;;;;;;27.08;9.73;;;;;;;-8.07;80.35;100646.22;3494562;28;20098;-40
2020/12/08 04:58:51;;;;;;;30.63;9.60;;;;;;;-8.09;80.31;100646.06;3496453;28;20083;-41
2020/12/08 05:00:39;;;;;;;22.70;9.45;;;;;;;-8.10;80.35;100640.91;3496577;28;20044;-41
2020/12/08 05:02:20;;;;;;;24.50;9.68;;;;;;;-8.10;80.51;100640.91;3492511;28;20157;-40
2020/12/08 05:04:02;;;;;;;22.10;9.25;;;;;;;-8.12;80.68;100640.75;3496808;28;20045;-40
2020/12/08 05:05:43;;;;;;;28.38;11.23;;;;;;;-8.12;80.76;100643.25;3493449;28;20435;-40
2020/12/08 05:07:26;;;;;;;29.17;10.52;;;;;;;-8.11;80.98;100642.50;3494043;28;20072;-40
2020/12/08 05:09:09;;;;;;;29.50;11.03;;;;;;;-8.12;80.85;100628.16;3497287;28;20084;-40
2020/12/08 05:10:50;;;;;;;24.95;9.98;;;;;;;-8.13;80.71;100641.47;3494909;28;20292;-41
2020/12/08 05:12:31;;;;;;;23.58;9.95;;;;;;;-8.16;80.52;100638.63;3494707;28;20131;-39
2020/12/08 05:14:13;;;;;;;26.92;8.82;;;;;;;-8.18;80.66;100637.59;3497188;28;20540;-52
2020/12/08 05:15:59;;;;;;;27.75;10.88;;;;;;;-8.21;80.73;100638.16;3494938;28;20091;-54
2020/12/08 05:17:41;;;;;;;28.63;11.13;;;;;;;-8.22;80.90;100633.84;3492975;28;20048;-55
2020/12/08 05:19:22;;;;;;;25.30;10.65;;;;;;;-8.21;80.78;100644.81;3495542;28;20500;-55
2020/12/08 05:21:07;;;;;;;25.70;9.98;;;;;;;-8.23;80.86;100642.16;3495150;28;20045;-52
2020/12/08 05:22:53;;;;;;;23.92;9.82;;;;;;;-8.24;80.97;100642.00;3494606;28;20045;-41
2020/12/08 05:24:36;;;;;;;25.73;10.48;;;;;;;-8.26;81.01;100639.31;3496836;28;20093;-40
2020/12/08 05:26:17;;;;;;;26.25;9.43;;;;;;;-8.28;81.01;100637.38;3493343;28;20044;-40
2020/12/08 05:28:00;;;;;;;80.68;16.85;;;;;;;-8.29;81.28;100631.44;3495691;28;20056;-55
2020/12/08 05:29:42;;;;;;;26.73;11.02;;;;;;;-8.30;81.34;100629.66;3496873;28;20060;-54
2020/12/08 05:31:26;;;;;;;83.47;19.70;;;;;;;-8.30;81.31;100621.22;3492813;28;20422;-54
2020/12/08 05:33:09;;;;;;;34.97;11.88;;;;;;;-8.30;81.31;100634.69;3496331;28;20086;-53
2020/12/08 05:34:52;;;;;;;36.53;11.13;;;;;;;-8.31;81.63;100632.03;3496291;28;20080;-55
2020/12/08 05:36:43;;;;;;;27.50;10.70;;;;;;;-8.31;81.48;100632.91;3494380;28;20101;-41
2020/12/08 05:38:28;;;;;;;23.35;9.02;;;;;;;-8.31;81.60;100630.41;3495081;28;20048;-41
2020/12/08 05:40:11;;;;;;;28.58;10.70;;;;;;;-8.31;81.49;100637.94;3495506;28;20048;-40
2020/12/08 05:41:53;;;;;;;39.95;11.80;;;;;;;-8.34;81.47;100638.50;3494858;28;20048;-40
2020/12/08 05:43:38;;;;;;;24.13;9.77;;;;;;;-8.34;81.61;100640.16;3496751;28;20040;-40
2020/12/08 05:45:21;;;;;;;23.40;9.60;;;;;;;-8.35;81.56;100631.72;3494801;28;20051;-41
2020/12/08 05:47:04;;;;;;;32.13;10.63;;;;;;;-8.35;81.53;100633.34;3495342;28;20053;-40
2020/12/08 05:48:45;;;;;;;48.08;13.63;;;;;;;-8.36;81.43;100629.03;3495414;28;20167;-40
2020/12/08 05:50:27;;;;;;;35.05;11.30;;;;;;;-8.38;81.55;100628.00;3492310;28;20072;-40
2020/12/08 05:52:09;;;;;;;80.05;18.08;;;;;;;-8.38;81.61;100638.94;3493734;28;20053;-40
2020/12/08 05:53:54;;;;;;;63.88;14.57;;;;;;;-8.37;81.71;100634.78;3495728;28;20045;-40
2020/12/08 05:55:37;;;;;;;92.72;44.35;;;;;;;-8.37;81.72;100640.72;3494725;28;20052;-40
2020/12/08 05:57:18;;;;;;;255.73;93.70;;;;;;;-8.37;81.71;100642.34;3492211;28;20076;-40
2020/12/08 05:58:59;;;;;;;496.63;217.52;;;;;;;-8.38;81.96;100645.59;3495748;28;20086;-40
2020/12/08 06:00:41;;;;;;;388.08;150.80;;;;;;;-8.40;81.93;100637.88;3493114;28;20048;-40
2020/12/08 06:02:27;;;;;;;392.33;151.30;;;;;;;-8.41;81.95;100645.28;3496436;28;20297;-40
2020/12/08 06:04:09;;;;;;;209.70;80.80;;;;;;;-8.41;82.13;100647.78;3495191;28;20068;-40
2020/12/08 06:05:51;;;;;;;930.35;472.80;;;;;;;-8.40;82.36;100655.50;3494098;28;20499;-40
2020/12/08 06:07:32;;;;;;;187.80;86.55;;;;;;;-8.37;82.50;100654.91;3496280;28;20072;-40
2020/12/08 06:09:24;;;;;;;97.63;49.75;;;;;;;-8.36;82.72;100662.63;3494961;28;20040;-40
2020/12/08 06:11:07;;;;;;;223.88;128.60;;;;;;;-8.31;82.77;100665.63;3493279;28;20048;-40
2020/12/08 06:12:58;;;;;;;96.20;51.63;;;;;;;-8.29;82.54;100671.72;3496411;28;20045;-40
2020/12/08 06:14:39;;;;;;;355.60;206.82;;;;;;;-8.26;82.59;100659.44;3494315;28;20501;-40
2020/12/08 06:16:22;;;;;;;124.43;69.68;;;;;;;-8.23;82.37;100659.78;3495325;28;20048;-40
2020/12/08 06:18:03;;;;;;;227.65;128.50;;;;;;;-8.20;82.27;100664.22;3496650;28;20425;-40
2020/12/08 06:19:44;;;;;;;243.73;122.05;;;;;;;-8.19;82.01;100669.41;3494084;28;20138;-40
2020/12/08 06:21:28;;;;;;;238.15;141.98;;;;;;;-8.18;82.16;100655.19;3493245;28;20409;-40
2020/12/08 06:23:09;;;;;;;248.23;140.35;;;;;;;-8.16;82.23;100656.25;3494739;28;20488;-40
2020/12/08 06:24:52;;;;;;;190.65;109.03;;;;;;;-8.15;82.03;100660.56;3494961;28;20044;-40
2020/12/08 06:26:36;;;;;;;183.27;108.13;;;;;;;-8.13;81.90;100649.00;3494469;28;20505;-40
2020/12/08 06:28:18;;;;;;;325.65;169.85;;;;;;;-8.12;81.98;100654.94;3494626;28;20509;-40
2020/12/08 06:29:59;;;;;;;161.13;81.07;;;;;;;-8.10;82.04;100658.53;3493544;28;20052;-41
2020/12/08 06:31:42;;;;;;;244.35;126.47;;;;;;;-8.11;81.81;100644.16;3495797;28;20048;-40
2020/12/08 06:33:24;;;;;;;453.73;265.38;;;;;;;-8.10;81.76;100653.50;3494378;28;20048;-40
2020/12/08 06:35:07;;;;;;;119.00;61.88;;;;;;;-8.10;81.97;100648.47;3494085;28;20051;-41
2020/12/08 06:36:49;;;;;;;210.68;85.00;;;;;;;-8.09;81.79;100651.09;3496291;28;20059;-40
2020/12/08 06:38:30;;;;;;;309.00;148.30;;;;;;;-8.08;82.05;100652.91;3494265;28;20101;-40
2020/12/08 06:40:13;;;;;;;547.40;267.83;;;;;;;-8.05;82.14;100652.31;3495273;28;20055;-40
2020/12/08 06:41:56;;;;;;;316.40;143.90;;;;;;;-8.05;82.03;100649.78;3495654;28;20114;-41
2020/12/08 06:43:41;;;;;;;405.48;201.38;;;;;;;-8.02;82.28;100650.13;3493324;28;20544;-40
2020/12/08 06:45:24;;;;;;;272.27;142.30;;;;;;;-8.01;82.13;100660.34;3493383;28;20071;-40
2020/12/08 06:47:06;;;;;;;373.88;177.40;;;;;;;-7.99;82.15;100656.34;3494155;28;20122;-40
2020/12/08 06:48:58;;;;;;;233.93;109.15;;;;;;;-7.98;81.63;100653.13;3492705;28;20044;-40
2020/12/08 06:50:40;;;;;;;316.92;152.88;;;;;;;-7.98;81.63;100653.13;3492660;28;20094;-42
2020/12/08 06:52:21;;;;;;;832.30;436.73;;;;;;;-7.96;81.64;100648.25;3496097;28;20051;-40
2020/12/08 06:54:11;;;;;;;496.05;223.52;;;;;;;-7.97;81.61;100657.41;3493777;28;20080;-40
2020/12/08 06:55:53;;;;;;;819.28;397.30;;;;;;;-7.94;81.85;100663.50;3494180;28;20405;-40
2020/12/08 06:57:36;;;;;;;791.88;399.52;;;;;;;-7.94;81.75;100659.34;3496284;28;20450;-40
2020/12/08 06:59:24;;;;;;;748.22;378.42;;;;;;;-7.93;81.74;100660.25;3492976;28;20052;-41
2020/12/08 07:01:07;;;;;;;945.65;482.90;;;;;;;-7.92;81.71;100652.84;3491788;28;20052;-41
2020/12/08 07:02:51;;;;;;;482.65;239.38;;;;;;;-7.91;81.38;100658.75;3495977;28;20052;-40
2020/12/08 07:04:33;;;;;;;183.57;88.10;;;;;;;-7.91;81.29;100648.69;3493041;28;20094;-40
2020/12/08 07:06:15;;;;;;;291.98;137.27;;;;;;;-7.90;81.37;100642.94;3493962;28;20048;-40
2020/12/08 07:07:59;;;;;;;428.88;191.27;;;;;;;-7.91;81.28;100647.09;3495521;28;20045;-40
2020/12/08 07:09:40;;;;;;;;;;;;;;;-7.91;81.18;100642.06;3492150;28;20057;-40
2020/12/08 07:11:23;;;;;;;279.50;146.23;;;;;;;-7.89;81.26;100649.72;3494128;28;20369;-40
2020/12/08 07:13:10;;;;;;;311.23;162.43;;;;;;;-7.86;81.16;100653.44;3495620;28;20052;-40
2020/12/08 07:14:58;;;;;;;251.45;116.22;;;;;;;-7.85;80.89;100660.28;3493640;28;20521;-40
2020/12/08 07:16:41;;;;;;;92.82;44.13;;;;;;;-7.84;80.78;100656.13;3491352;28;20064;-40
2020/12/08 07:18:22;;;;;;;86.57;46.63;;;;;;;-7.82;80.61;100657.22;3495074;28;20121;-40
2020/12/08 07:20:05;;;;;;;122.65;64.85;;;;;;;-7.82;80.54;100655.56;3491611;28;20075;-40
2020/12/08 07:21:56;;;;;;;123.70;65.65;;;;;;;-7.79;80.53;100654.97;3494663;28;20052;-40
2020/12/08 07:23:39;;;;;;;131.35;72.32;;;;;;;-7.79;80.50;100662.53;3495973;28;20056;-40
2020/12/08 07:25:21;;;;;;;170.70;99.47;;;;;;;-7.77;80.53;100656.00;3492045;28;20067;-40
2020/12/08 07:27:04;;;;;;;133.77;66.30;;;;;;;-7.76;80.23;100660.31;3493858;28;20048;-40
2020/12/08 07:28:46;;;;;;;189.13;99.18;;;;;;;-7.74;80.26;100658.84;3493963;28;20049;-54
2020/12/08 07:30:30;;;;;;;174.82;100.25;;;;;;;-7.71;80.36;100654.13;3493516;28;20051;-55
2020/12/08 07:32:12;;;;;;;46.88;25.20;;;;;;;-7.70;80.22;100653.41;3494097;28;20059;-52
2020/12/08 07:33:53;;;;;;;177.13;103.03;;;;;;;-7.68;80.10;100659.50;3494252;28;20056;-55
2020/12/08 07:35:36;;;;;;;85.50;47.70;;;;;;;-7.68;79.72;100662.00;3492958;28;20044;-52
2020/12/08 07:37:17;;;;;;;51.90;28.05;;;;;;;-7.67;79.69;100661.25;3494484;28;20052;-52
2020/12/08 07:39:01;;;;;;;114.93;64.50;;;;;;;-7.66;79.75;100668.09;3492527;28;20048;-51
2020/12/08 07:40:42;;;;;;;145.80;68.95;;;;;;;-7.65;79.51;100661.41;3494067;28;20065;-54
2020/12/08 07:42:24;;;;;;;96.22;52.47;;;;;;;-7.65;79.08;100663.94;3492711;28;20538;-55
2020/12/08 07:44:11;;;;;;;150.77;81.90;;;;;;;-7.65;79.12;100662.28;3492725;28;20055;-54
2020/12/08 07:45:52;;;;;;;101.43;57.47;;;;;;;-7.63;79.22;100670.94;3494352;28;20071;-53
2020/12/08 07:47:34;;;;;;;105.82;53.38;;;;;;;-7.60;79.51;100667.81;3496439;28;20056;-51